M I D A S
Marine Information and Data Acquisition System
Tripno 1162 of the Zeeleeuw from 2006-09-08 09:17:16 to 2006-09-08 13:34:01
Back to CruiseResearch ActivitiesStationsMapUnderway DataData graphs

EquipmentUnitsComment
TimeDGPSUTC
LatitudeDGPSDM.mWGS84
LongitudeDGPSDM.mWGS84
HeadingGyrodeg 
SOGDGPSknotsSpeed over ground
COGDGPSdegCourse over ground
DepthEcho soundermeters200 kHz
Missing or incorrect values are displayed as -999
Navigation data collected by the RV Zeeleeuw from 2006-09-08 07:01:20 to 2006-09-08 13:47:31
Time Latitude Longitude Heading SOG COG Depth
2006-09-08 07:02:26 51°13.599 2°56.058 99.5 0.8 274 -999
2006-09-08 07:03:24 51°13.593 2°56.096 109.8 1.9 103 6.6
2006-09-08 07:04:25 51°13.586 2°56.12 127.1 1 125 6.6
2006-09-08 07:05:25 51°13.582 2°56.124 133.6 0.5 136 6.9
2006-09-08 07:06:25 51°13.578 2°56.133 130.6 0.3 80 7.2
2006-09-08 07:07:25 51°13.579 2°56.136 119.3 0.1 28 7.4
2006-09-08 07:08:25 51°13.579 2°56.136 128.5 -999 167 7.4
2006-09-08 07:09:25 51°13.579 2°56.135 130.3 -999 70 7.4
2006-09-08 07:10:25 51°13.58 2°56.136 127.5 0.1 52 7.4
2006-09-08 07:11:24 51°13.579 2°56.136 126.3 -999 146 5.4
2006-09-08 07:12:25 51°13.58 2°56.136 126.3 -999 108 7.4
2006-09-08 07:13:25 51°13.58 2°56.137 126.3 -999 139 7.3
2006-09-08 07:14:25 51°13.58 2°56.137 126.3 -999 243 7.4
2006-09-08 07:15:25 51°13.581 2°56.137 126.2 -999 179 5.5
2006-09-08 07:16:25 51°13.58 2°56.137 126.2 -999 311 7.3
2006-09-08 07:17:24 51°13.58 2°56.137 126.2 -999 262 7.4
2006-09-08 07:18:24 51°13.58 2°56.136 126.2 -999 281 7.4
2006-09-08 07:19:25 51°13.58 2°56.136 126.1 -999 277 5.5
2006-09-08 07:20:24 51°13.58 2°56.136 126 -999 294 7.4
2006-09-08 07:21:25 51°13.58 2°56.136 125.9 -999 305 7.4
2006-09-08 07:22:25 51°13.58 2°56.136 125.9 -999 327 7.4
2006-09-08 07:23:24 51°13.58 2°56.137 125.8 -999 298 7.5
2006-09-08 07:24:25 51°13.581 2°56.136 125.8 -999 301 7.3
2006-09-08 07:25:25 51°13.58 2°56.136 125.8 -999 29 7.4
2006-09-08 07:26:24 51°13.58 2°56.136 125.7 -999 100 7.4
2006-09-08 07:27:25 51°13.58 2°56.136 125.7 0.1 272 7.5
2006-09-08 07:28:25 51°13.581 2°56.136 125.7 -999 317 5.5
2006-09-08 07:29:24 51°13.581 2°56.136 125.7 -999 305 7.5
2006-09-08 07:30:25 51°13.581 2°56.136 125.7 -999 285 7.5
2006-09-08 07:31:25 51°13.581 2°56.137 125.6 -999 35 -999
2006-09-08 07:32:25 51°13.581 2°56.137 125.6 -999 93 7.5
2006-09-08 07:33:25 51°13.581 2°56.137 125.6 -999 92 7.5
2006-09-08 07:34:24 51°13.581 2°56.138 125.5 -999 144 7.6
2006-09-08 07:35:24 51°13.581 2°56.139 125.5 -999 98 7.6
2006-09-08 07:36:24 51°13.582 2°56.139 125.5 -999 344 7.6
2006-09-08 07:37:25 51°13.582 2°56.138 125.5 -999 317 7.6
2006-09-08 07:38:25 51°13.585 2°56.141 125.5 -999 151 7.6
2006-09-08 07:39:25 51°13.58 2°56.136 125.5 -999 121 7.6
2006-09-08 07:40:24 51°13.581 2°56.139 125.5 -999 185 7.6
2006-09-08 07:41:25 51°13.578 2°56.137 125.5 -999 203 7.6
2006-09-08 07:42:24 51°13.579 2°56.138 125.4 -999 177 7.7
2006-09-08 07:43:25 51°13.579 2°56.139 125.4 -999 12 7.7
2006-09-08 07:44:24 51°13.583 2°56.141 125.4 -999 171 7.7
2006-09-08 07:45:25 51°13.584 2°56.141 125.4 -999 176 7.7
2006-09-08 07:46:24 51°13.583 2°56.14 125.4 0.1 182 7.7
2006-09-08 07:47:26 51°13.583 2°56.14 125.3 -999 148 7.7
2006-09-08 07:48:24 51°13.584 2°56.139 125.3 -999 9 7.8
2006-09-08 07:49:25 51°13.58 2°56.136 125.3 -999 20 7.7
2006-09-08 07:50:24 51°13.582 2°56.138 125.3 -999 163 7.7
2006-09-08 07:51:26 51°13.58 2°56.137 125.3 -999 53 7.7
2006-09-08 07:52:24 51°13.58 2°56.136 125.2 -999 143 7.7
2006-09-08 07:53:25 51°13.58 2°56.136 125.2 -999 178 7.8
2006-09-08 07:54:25 51°13.579 2°56.137 125.2 -999 173 7.8
2006-09-08 07:55:25 51°13.578 2°56.137 125.3 -999 171 7.7
2006-09-08 07:56:25 51°13.579 2°56.135 125.3 -999 183 7.7
2006-09-08 07:57:24 51°13.58 2°56.132 125.3 -999 184 7.7
2006-09-08 07:58:25 51°13.581 2°56.133 125.3 -999 198 7.8
2006-09-08 07:59:25 51°13.581 2°56.134 125.3 -999 234 7.8
2006-09-08 08:00:25 51°13.581 2°56.134 125.3 -999 332 7.7
2006-09-08 08:01:25 51°13.582 2°56.134 125.3 -999 84 7.8
2006-09-08 08:02:25 51°13.583 2°56.136 125.3 -999 10 7.7
2006-09-08 08:03:25 51°13.58 2°56.135 125.3 -999 142 7.8
2006-09-08 08:04:25 51°13.58 2°56.135 125.3 -999 166 8
2006-09-08 08:05:25 51°13.581 2°56.136 125.3 -999 174 7.7
2006-09-08 08:06:25 51°13.582 2°56.135 125.3 -999 31 7.8
2006-09-08 08:07:25 51°13.582 2°56.136 125.3 0.1 181 7.7
2006-09-08 08:08:25 51°13.582 2°56.136 125.3 -999 24 7.8
2006-09-08 08:09:25 51°13.584 2°56.136 125.3 -999 20 7.8
2006-09-08 08:10:25 51°13.583 2°56.136 125.3 -999 67 7.8
2006-09-08 08:11:25 51°13.581 2°56.135 125.3 -999 180 7.8
2006-09-08 08:12:25 51°13.581 2°56.136 125.3 -999 40 7.8
2006-09-08 08:13:25 51°13.581 2°56.136 125.3 -999 186 7.8
2006-09-08 08:14:25 51°13.58 2°56.135 125.3 -999 107 8
2006-09-08 08:15:25 51°13.58 2°56.136 125.3 -999 12 7.8
2006-09-08 08:16:24 51°13.58 2°56.136 125.3 -999 152 7.9
2006-09-08 08:17:25 51°13.58 2°56.136 125.3 -999 42 8
2006-09-08 08:18:24 51°13.576 2°56.126 125.3 0.2 110 8.1
2006-09-08 08:19:25 51°13.578 2°56.134 125.3 -999 171 7.9
2006-09-08 08:20:25 51°13.58 2°56.135 125.3 -999 21 8.1
2006-09-08 08:21:25 51°13.58 2°56.136 125.3 -999 168 8.1
2006-09-08 08:22:25 51°13.58 2°56.136 125.3 -999 156 8
2006-09-08 08:23:25 51°13.58 2°56.136 125.3 -999 16 7.9
2006-09-08 08:24:25 51°13.58 2°56.137 125.3 -999 214 8
2006-09-08 08:25:24 51°13.581 2°56.138 125.3 -999 31 8
2006-09-08 08:26:25 51°13.58 2°56.136 125.3 -999 27 8
2006-09-08 08:27:25 51°13.581 2°56.136 125.3 -999 290 8.1
2006-09-08 08:28:24 51°13.58 2°56.136 125.3 -999 256 8.1
2006-09-08 08:29:25 51°13.58 2°56.136 125.4 -999 130 8.1
2006-09-08 08:30:25 51°13.579 2°56.136 125.4 -999 19 8.1
2006-09-08 08:31:25 51°13.578 2°56.135 125.4 -999 10 8
2006-09-08 08:32:25 51°13.579 2°56.135 125.4 -999 27 8.2
2006-09-08 08:33:25 51°13.579 2°56.135 125.4 -999 62 8
2006-09-08 08:34:25 51°13.579 2°56.136 125.4 -999 58 8
2006-09-08 08:35:26 51°13.579 2°56.136 125.4 -999 78 8
2006-09-08 08:36:26 51°13.58 2°56.136 125.4 -999 338 8
2006-09-08 08:37:24 51°13.58 2°56.135 125.4 -999 34 8.1
2006-09-08 08:38:25 51°13.58 2°56.135 125.4 -999 35 8.1
2006-09-08 08:39:25 51°13.58 2°56.136 125.4 -999 94 8.1
2006-09-08 08:40:25 51°13.581 2°56.136 125.4 -999 19 8.1
2006-09-08 08:41:25 51°13.58 2°56.136 125.4 -999 180 8.2
2006-09-08 08:42:25 51°13.58 2°56.136 125.5 -999 133 8
2006-09-08 08:43:24 51°13.58 2°56.136 125.5 -999 160 8
2006-09-08 08:44:25 51°13.578 2°56.136 125.5 -999 165 8.1
2006-09-08 08:45:25 51°13.578 2°56.136 125.5 -999 144 8.1
2006-09-08 08:46:24 51°13.578 2°56.136 125.5 -999 33 8.1
2006-09-08 08:47:24 51°13.579 2°56.137 125.5 -999 148 8.1
2006-09-08 08:48:24 51°13.58 2°56.137 125.5 -999 187 8.3
2006-09-08 08:49:25 51°13.58 2°56.136 125.5 -999 127 8.3
2006-09-08 08:50:26 51°13.58 2°56.136 125.5 -999 44 8
2006-09-08 08:51:24 51°13.578 2°56.136 125.5 -999 340 8.3
2006-09-08 08:52:25 51°13.577 2°56.136 125.5 -999 147 8.2
2006-09-08 08:53:25 51°13.577 2°56.136 125.5 -999 155 8.1
2006-09-08 08:54:25 51°13.578 2°56.136 125.5 -999 189 8.3
2006-09-08 08:55:24 51°13.578 2°56.137 125.4 -999 104 8.1
2006-09-08 08:56:25 51°13.578 2°56.137 125.4 -999 169 8.1
2006-09-08 08:57:26 51°13.579 2°56.137 125.4 -999 36 8.2
2006-09-08 08:58:24 51°13.58 2°56.137 125.4 -999 26 8.2
2006-09-08 08:59:24 51°13.58 2°56.137 125.4 -999 110 8.2
2006-09-08 09:00:25 51°13.579 2°56.138 125.4 -999 31 8.2
2006-09-08 09:01:25 51°13.579 2°56.138 125.4 -999 180 8.2
2006-09-08 09:02:25 51°13.58 2°56.138 125.4 -999 177 8.2
2006-09-08 09:03:24 51°13.581 2°56.137 125.4 -999 175 8.3
2006-09-08 09:04:24 51°13.581 2°56.137 125.4 -999 163 8.2
2006-09-08 09:05:24 51°13.58 2°56.137 125.4 -999 14 8.5
2006-09-08 09:06:24 51°13.58 2°56.136 125.4 -999 159 8.2
2006-09-08 09:07:24 51°13.581 2°56.137 125.4 -999 46 8.2
2006-09-08 09:08:24 51°13.581 2°56.137 125.4 -999 105 8.5
2006-09-08 09:09:24 51°13.581 2°56.137 125.4 -999 50 8.3
2006-09-08 09:10:24 51°13.581 2°56.136 125.4 -999 164 8.3
2006-09-08 09:11:25 51°13.58 2°56.136 125.4 -999 11 8.5
2006-09-08 09:12:25 51°13.58 2°56.136 125.4 -999 101 8.5
2006-09-08 09:13:25 51°13.581 2°56.136 124.7 -999 270 8.2
2006-09-08 09:14:25 51°13.581 2°56.134 124.6 0.1 282 8.4
2006-09-08 09:15:24 51°13.581 2°56.131 129.2 0.1 183 8.7
2006-09-08 09:16:25 51°13.58 2°56.13 133.6 0.2 144 8.4
2006-09-08 09:17:24 51°13.559 2°56.164 136.2 3.6 135 9.1
2006-09-08 09:18:24 51°13.536 2°56.225 100.1 0.5 131 9.3
2006-09-08 09:19:26 51°13.535 2°56.222 89.9 1.6 94 -999
2006-09-08 09:20:26 51°13.532 2°56.219 66 0.1 212 -999
2006-09-08 09:21:24 51°13.546 2°56.234 15.9 0.5 23 8.8
2006-09-08 09:22:26 51°13.532 2°56.236 353.4 0.5 165 -999
2006-09-08 09:23:25 51°13.528 2°56.243 331.2 1.5 145 9.4
2006-09-08 09:24:26 51°13.534 2°56.221 301.4 3.8 298 9.5
2006-09-08 09:25:27 51°13.578 2°56.079 301.1 6.9 298 9.5
2006-09-08 09:26:26 51°13.634 2°55.934 306.5 5.8 304 9.4
2006-09-08 09:27:25 51°13.683 2°55.826 310.1 4.8 307 9.5
2006-09-08 09:28:26 51°13.735 2°55.726 316.9 5.1 315 10.4
2006-09-08 09:29:26 51°13.809 2°55.646 335.6 5.4 333 10.7
2006-09-08 09:30:26 51°13.894 2°55.588 341.9 5.6 338 10.4
2006-09-08 09:31:26 51°13.982 2°55.533 341.2 5.8 338 10.4
2006-09-08 09:32:25 51°14.07 2°55.473 340.7 6.1 337 10.4
2006-09-08 09:33:25 51°14.174 2°55.389 334.1 7.4 329 10.3
2006-09-08 09:34:26 51°14.27 2°55.258 315.4 7.5 311 10.3
2006-09-08 09:35:26 51°14.352 2°55.098 316.1 8.6 313 10.4
2006-09-08 09:36:27 51°14.457 2°54.879 316.1 11.4 308 10.6
2006-09-08 09:37:26 51°14.592 2°54.664 327.3 11.7 320 9.6
2006-09-08 09:38:26 51°14.756 2°54.518 341.7 11.2 331 9.5
2006-09-08 09:39:26 51°14.924 2°54.38 342.9 11.4 333 9.1
2006-09-08 09:40:26 51°15.101 2°54.295 353.8 11 345 8.8
2006-09-08 09:41:27 51°15.281 2°54.294 15.2 10.4 7 9.1
2006-09-08 09:42:26 51°15.452 2°54.335 13.7 10.7 5 9.8
2006-09-08 09:43:27 51°15.629 2°54.36 14.5 10.6 6 10.2
2006-09-08 09:44:26 51°15.801 2°54.383 14.1 10.5 5 10.6
2006-09-08 09:45:25 51°15.974 2°54.412 15.9 10.5 6 11
2006-09-08 09:46:25 51°16.113 2°54.428 15.1 6.4 2 11.5
2006-09-08 09:47:26 51°16.184 2°54.429 19.7 3.1 1 11.2
2006-09-08 09:48:26 51°16.215 2°54.408 6.3 1.9 316 11.6
2006-09-08 09:49:26 51°16.226 2°54.364 355.6 1.8 279 11.6
2006-09-08 09:50:26 51°16.224 2°54.318 352.7 1.8 261 11.5
2006-09-08 09:51:26 51°16.213 2°54.273 351.7 1.8 243 11.7
2006-09-08 09:52:25 51°16.199 2°54.23 354 1.8 249 11.6
2006-09-08 09:53:26 51°16.191 2°54.19 11.8 1.4 255 11.6
2006-09-08 09:54:26 51°16.187 2°54.159 33.3 1.1 261 11.6
2006-09-08 09:55:27 51°16.181 2°54.141 51.5 0.6 240 11.6
2006-09-08 09:56:27 51°16.176 2°54.132 52.7 0.6 180 11.7
2006-09-08 09:57:26 51°16.175 2°54.129 43.1 0.3 325 11.6
2006-09-08 09:58:27 51°16.181 2°54.126 42.7 0.5 349 11.6
2006-09-08 09:59:26 51°16.188 2°54.129 45.3 0.4 12 11.6
2006-09-08 10:00:25 51°16.195 2°54.135 44.1 0.6 27 11.8
2006-09-08 10:01:27 51°16.205 2°54.144 45.8 0.8 36 11.7
2006-09-08 10:02:27 51°16.212 2°54.162 58 1 79 11.7
2006-09-08 10:03:26 51°16.215 2°54.19 64.3 1.2 89 11.8
2006-09-08 10:04:25 51°16.214 2°54.222 68.2 1.2 98 11.7
2006-09-08 10:05:24 51°16.214 2°54.247 58 0.9 89 11.8
2006-09-08 10:06:27 51°16.219 2°54.262 45.9 0.5 29 11.8
2006-09-08 10:07:26 51°16.229 2°54.267 36.3 0.8 357 11.8
2006-09-08 10:08:27 51°16.241 2°54.268 38.4 0.7 8 11.8
2006-09-08 10:09:26 51°16.245 2°54.274 52.4 0.4 107 11.9
2006-09-08 10:10:27 51°16.242 2°54.282 58.7 0.4 124 11.7
2006-09-08 10:11:27 51°16.239 2°54.288 49.5 0.2 134 11.8
2006-09-08 10:12:27 51°16.24 2°54.285 41.6 0.2 287 11.9
2006-09-08 10:13:27 51°16.241 2°54.276 42.4 0.3 245 11.7
2006-09-08 10:14:27 51°16.236 2°54.274 62.2 0.3 169 11.7
2006-09-08 10:15:27 51°16.23 2°54.279 66.3 0.7 137 12
2006-09-08 10:16:26 51°16.23 2°54.278 34.1 0.5 263 11.9
2006-09-08 10:17:27 51°16.224 2°54.256 23 1.2 248 11.9
2006-09-08 10:18:26 51°16.214 2°54.227 14.6 1.5 241 12
2006-09-08 10:19:27 51°16.199 2°54.191 1.9 1.5 232 11.9
2006-09-08 10:20:27 51°16.182 2°54.154 345.6 1.8 232 12
2006-09-08 10:21:26 51°16.164 2°54.12 329.9 1.6 231 12
2006-09-08 10:22:27 51°16.144 2°54.086 317.3 1.7 226 12
2006-09-08 10:23:25 51°16.133 2°54.047 326.3 1.7 266 11.9
2006-09-08 10:24:26 51°16.138 2°54.008 2.5 1.2 306 12.1
2006-09-08 10:25:27 51°16.153 2°53.992 14.5 1.2 339 12
2006-09-08 10:26:26 51°16.178 2°53.981 15.7 1.9 353 12.1
2006-09-08 10:27:26 51°16.209 2°53.973 16 1.7 356 12.3
2006-09-08 10:28:25 51°16.232 2°53.965 15.1 1.4 341 12.4
2006-09-08 10:29:26 51°16.254 2°53.951 15.1 1.2 344 12.3
2006-09-08 10:30:26 51°16.272 2°53.941 14.8 1 345 12.2
2006-09-08 10:31:27 51°16.288 2°53.928 15.2 1 341 12.4
2006-09-08 10:32:25 51°16.304 2°53.917 15.2 1 334 12.5
2006-09-08 10:33:27 51°16.32 2°53.907 14.6 1.1 334 12.3
2006-09-08 10:34:26 51°16.337 2°53.895 13.5 1.2 344 12.4
2006-09-08 10:35:25 51°16.354 2°53.882 12.8 1.4 334 12.7
2006-09-08 10:36:27 51°16.364 2°53.87 18.4 0.5 298 12.7
2006-09-08 10:37:27 51°16.367 2°53.853 18.9 0.7 327 12.5
2006-09-08 10:38:27 51°16.406 2°53.818 334 4.6 319 12.6
2006-09-08 10:39:27 51°16.459 2°53.67 302.2 7.4 296 12.6
2006-09-08 10:40:27 51°16.521 2°53.48 304.1 8.2 297 12.5
2006-09-08 10:41:27 51°16.594 2°53.295 311.4 7.9 306 12.3
2006-09-08 10:42:26 51°16.676 2°53.128 315.3 8.1 310 12.6
2006-09-08 10:43:27 51°16.772 2°52.98 326.2 7.8 321 11.9
2006-09-08 10:44:26 51°16.869 2°52.85 325.4 7.8 318 10.4
2006-09-08 10:45:27 51°16.969 2°52.712 325.9 7.9 319 11.2
2006-09-08 10:46:25 51°17.068 2°52.583 328.6 7.8 320 10.7
2006-09-08 10:47:26 51°17.17 2°52.448 324.9 7.7 318 11.2
2006-09-08 10:48:26 51°17.267 2°52.313 326.2 7.8 320 11.8
2006-09-08 10:49:27 51°17.366 2°52.172 324.4 7.8 319 11.9
2006-09-08 10:50:26 51°17.464 2°52.041 328.7 7.6 323 11.8
2006-09-08 10:51:27 51°17.565 2°51.924 329.3 7.3 324 12
2006-09-08 10:52:27 51°17.662 2°51.812 329.2 7.4 323 11.7
2006-09-08 10:53:25 51°17.743 2°51.707 332.2 5.7 324 11.6
2006-09-08 10:54:27 51°17.821 2°51.626 336.6 5.3 327 11.9
2006-09-08 10:55:27 51°17.894 2°51.551 336.9 5 330 12.1
2006-09-08 10:56:26 51°17.967 2°51.478 334.7 5.1 326 12.4
2006-09-08 10:57:25 51°18.038 2°51.405 335.2 5.2 328 13
2006-09-08 10:58:26 51°18.113 2°51.33 334.5 5.2 328 13.2
2006-09-08 10:59:26 51°18.178 2°51.26 333.4 3.9 323 13.9
2006-09-08 11:00:25 51°18.218 2°51.213 336.9 2.5 327 14.3
2006-09-08 11:01:26 51°18.252 2°51.176 340.3 2.3 327 14.5
2006-09-08 11:02:25 51°18.281 2°51.146 341.8 2 328 14.7
2006-09-08 11:03:26 51°18.307 2°51.118 342.7 1.8 330 15
2006-09-08 11:04:25 51°18.334 2°51.095 345.5 1.6 332 15.1
2006-09-08 11:05:26 51°18.349 2°51.078 340.8 1.1 312 15.2
2006-09-08 11:06:26 51°18.361 2°51.034 291.2 2.1 279 15.2
2006-09-08 11:07:26 51°18.347 2°50.967 249.3 3.3 239 15.3
2006-09-08 11:08:26 51°18.313 2°50.866 251.9 4.8 246 15.5
2006-09-08 11:09:25 51°18.275 2°50.745 247.1 5.3 238 15.4
2006-09-08 11:10:26 51°18.226 2°50.618 244.4 5.6 242 15.5
2006-09-08 11:11:26 51°18.176 2°50.491 243.4 5.7 238 15.5
2006-09-08 11:12:24 51°18.127 2°50.37 244 5.7 235 15.8
2006-09-08 11:13:26 51°18.071 2°50.243 238.7 5.7 234 15.8
2006-09-08 11:14:26 51°18.012 2°50.128 236.8 5.8 224 15.8
2006-09-08 11:15:26 51°17.956 2°50.012 237.6 5.4 230 15.7
2006-09-08 11:16:26 51°17.897 2°49.901 233.4 5.5 224 15.7
2006-09-08 11:17:26 51°17.828 2°49.806 225.4 5.7 208 15.6
2006-09-08 11:18:25 51°17.77 2°49.744 218.4 3.6 211 15.8
2006-09-08 11:19:26 51°17.724 2°49.705 220.8 2.6 208 15.6
2006-09-08 11:20:25 51°17.69 2°49.676 225 2 219 16.2
2006-09-08 11:21:26 51°17.669 2°49.632 268.8 1.9 276 16.5
2006-09-08 11:22:26 51°17.677 2°49.6 306 0.9 299 17
2006-09-08 11:23:26 51°17.682 2°49.595 317.2 0.1 339 16.3
2006-09-08 11:24:24 51°17.68 2°49.603 316.1 0.7 132 17.2
2006-09-08 11:25:25 51°17.675 2°49.618 302.7 0.6 129 17.5
2006-09-08 11:26:24 51°17.676 2°49.617 303.2 0.6 317 17.5
2006-09-08 11:27:26 51°17.688 2°49.608 324.2 0.6 345 17.9
2006-09-08 11:28:26 51°17.697 2°49.609 326.7 0.3 18 17.5
2006-09-08 11:29:24 51°17.699 2°49.616 325 0.3 74 17.6
2006-09-08 11:30:24 51°17.7 2°49.626 322.1 0.6 73 18.4
2006-09-08 11:31:25 51°17.699 2°49.639 314.9 0.6 112 18.1
2006-09-08 11:32:26 51°17.696 2°49.654 305.5 0.7 130 17.5
2006-09-08 11:33:26 51°17.694 2°49.673 296.7 0.8 107 16.8
2006-09-08 11:34:25 51°17.691 2°49.692 292 0.7 118 16.2
2006-09-08 11:35:26 51°17.689 2°49.712 290.8 0.8 121 16.1
2006-09-08 11:36:24 51°17.688 2°49.732 293.7 0.9 80 16.1
2006-09-08 11:37:26 51°17.686 2°49.753 299.5 0.7 128 16.1
2006-09-08 11:38:24 51°17.686 2°49.774 303.3 1.1 71 16.1
2006-09-08 11:39:26 51°17.684 2°49.795 303.8 0.7 98 16.2
2006-09-08 11:40:24 51°17.682 2°49.815 303.1 0.7 102 16.3
2006-09-08 11:41:26 51°17.682 2°49.839 302.8 0.9 84 16.3
2006-09-08 11:42:25 51°17.68 2°49.86 300.2 0.9 88 16.2
2006-09-08 11:43:26 51°17.678 2°49.883 296.4 0.7 122 16.3
2006-09-08 11:44:26 51°17.676 2°49.906 288 1 82 15.9
2006-09-08 11:45:24 51°17.676 2°49.928 286.3 0.8 77 15.9
2006-09-08 11:46:24 51°17.677 2°49.949 285.7 0.8 76 16
2006-09-08 11:47:26 51°17.678 2°49.97 289.2 1 68 15.9
2006-09-08 11:48:25 51°17.681 2°49.991 294.2 0.9 78 16
2006-09-08 11:49:26 51°17.685 2°50.012 299.6 0.9 68 15.8
2006-09-08 11:50:26 51°17.688 2°50.032 300.8 0.6 110 16.1
2006-09-08 11:51:26 51°17.691 2°50.054 301.5 0.8 84 16
2006-09-08 11:52:26 51°17.693 2°50.078 299.8 1 79 15.8
2006-09-08 11:53:24 51°17.698 2°50.1 296.6 1.5 77 15.9
2006-09-08 11:54:26 51°17.702 2°50.125 295.2 0.8 88 16
2006-09-08 11:55:26 51°17.703 2°50.152 292.7 1.1 83 15.8
2006-09-08 11:56:26 51°17.707 2°50.182 287.4 1.2 73 15.8
2006-09-08 11:57:26 51°17.709 2°50.211 286.5 1.1 95 16
2006-09-08 11:58:25 51°17.713 2°50.24 286.5 1.2 70 15.7
2006-09-08 11:59:26 51°17.715 2°50.268 288.8 1.1 80 15.7
2006-09-08 12:00:25 51°17.719 2°50.294 290.4 1.1 76 15.7
2006-09-08 12:01:26 51°17.725 2°50.323 292.5 1 82 15.6
2006-09-08 12:02:26 51°17.73 2°50.349 295.2 1 77 15.4
2006-09-08 12:03:25 51°17.734 2°50.376 295 1.2 66 15.4
2006-09-08 12:04:26 51°17.738 2°50.403 293.7 1.4 58 15.5
2006-09-08 12:05:27 51°17.744 2°50.43 297.2 0.9 96 15.5
2006-09-08 12:06:26 51°17.749 2°50.457 295.8 1 76 15.3
2006-09-08 12:07:26 51°17.755 2°50.482 293.9 1.4 53 15.4
2006-09-08 12:08:26 51°17.758 2°50.509 293.1 1.3 66 15.3
2006-09-08 12:09:26 51°17.765 2°50.535 292.5 1.1 63 15.4
2006-09-08 12:10:26 51°17.772 2°50.561 290.3 1.1 63 15.4
2006-09-08 12:11:26 51°17.779 2°50.587 290.7 1 65 15.5
2006-09-08 12:12:26 51°17.787 2°50.611 292.1 1 69 15.2
2006-09-08 12:13:25 51°17.793 2°50.637 292.2 0.8 79 15.3
2006-09-08 12:14:25 51°17.801 2°50.664 292.9 1 74 15.1
2006-09-08 12:15:25 51°17.811 2°50.687 297.1 1.5 58 15
2006-09-08 12:16:26 51°17.82 2°50.71 298 0.9 60 15.1
2006-09-08 12:17:25 51°17.828 2°50.739 297.6 1.2 59 15
2006-09-08 12:18:27 51°17.836 2°50.764 294.8 1.1 63 15.1
2006-09-08 12:19:26 51°17.844 2°50.793 289.9 1.3 60 14.8
2006-09-08 12:20:26 51°17.852 2°50.82 286.8 1.2 51 15
2006-09-08 12:21:27 51°17.86 2°50.852 287.4 1.2 67 15
2006-09-08 12:22:26 51°17.869 2°50.881 285.8 1.2 64 14.9
2006-09-08 12:23:27 51°17.877 2°50.911 285.9 1.2 68 14.7
2006-09-08 12:24:26 51°17.888 2°50.944 283.8 1.4 66 14.9
2006-09-08 12:25:26 51°17.897 2°50.975 283.3 1.3 70 14.7
2006-09-08 12:26:25 51°17.907 2°51.008 285 1.6 52 14.7
2006-09-08 12:27:27 51°17.916 2°51.038 286.7 1.2 63 14.5
2006-09-08 12:28:25 51°17.925 2°51.072 288.4 1.4 59 14.4
2006-09-08 12:29:26 51°17.934 2°51.103 288.8 1.2 76 14.7
2006-09-08 12:30:27 51°17.945 2°51.139 286.6 1.7 56 14.5
2006-09-08 12:31:26 51°17.956 2°51.172 283.9 1.3 62 14.4
2006-09-08 12:32:27 51°17.974 2°51.174 297.3 1.3 347 14.3
2006-09-08 12:33:26 51°18.011 2°51.151 307.6 2.7 337 14.7
2006-09-08 12:34:27 51°18.057 2°51.11 304.3 2.9 326 15
2006-09-08 12:35:26 51°18.098 2°51.058 300.1 3.4 319 15.4
2006-09-08 12:36:26 51°18.146 2°50.999 304.1 3.5 320 15.8
2006-09-08 12:37:27 51°18.197 2°50.946 310.7 4 328 15.6
2006-09-08 12:38:26 51°18.253 2°50.918 323.1 3.9 347 16.4
2006-09-08 12:39:26 51°18.315 2°50.894 324.6 3.9 344 16.4
2006-09-08 12:40:26 51°18.372 2°50.878 327.4 3.1 351 16.8
2006-09-08 12:41:27 51°18.42 2°50.878 331.5 2.5 3 16.5
2006-09-08 12:42:25 51°18.449 2°50.896 335.3 1.6 27 16.7
2006-09-08 12:43:26 51°18.468 2°50.921 333.3 1.3 42 16.5
2006-09-08 12:44:27 51°18.481 2°50.947 328.1 1.2 57 16.8
2006-09-08 12:45:27 51°18.493 2°50.976 318.5 1.3 70 16.8
2006-09-08 12:46:27 51°18.503 2°51.012 304.1 1.9 72 16.7
2006-09-08 12:47:26 51°18.513 2°51.039 296.4 1.7 55 16.8
2006-09-08 12:48:26 51°18.525 2°51.061 287.1 0.8 356 16.9
2006-09-08 12:49:27 51°18.554 2°51.055 323.6 2.3 -999 16.7
2006-09-08 12:50:27 51°18.599 2°51.057 330.6 2.2 14 17
2006-09-08 12:51:26 51°18.636 2°51.063 327.7 2.2 7 17
2006-09-08 12:52:26 51°18.669 2°51.07 330.5 1.9 6 16.8
2006-09-08 12:53:27 51°18.698 2°51.081 329.8 1.9 23 17.3
2006-09-08 12:54:26 51°18.725 2°51.093 329.3 1.6 8 17.4
2006-09-08 12:55:26 51°18.752 2°51.105 332.7 1.8 14 17.2
2006-09-08 12:56:25 51°18.779 2°51.116 332.4 1.6 6 17.3
2006-09-08 12:57:27 51°18.805 2°51.13 328.5 1.5 22 17.4
2006-09-08 12:58:25 51°18.828 2°51.139 329.8 1.6 19 17.3
2006-09-08 12:59:27 51°18.853 2°51.151 330.8 1.4 17 17.4
2006-09-08 13:00:27 51°18.878 2°51.162 330.8 1.7 13 17.6
2006-09-08 13:01:27 51°18.906 2°51.178 336.2 2 29 17.5
2006-09-08 13:02:27 51°18.92 2°51.2 334.9 1.2 44 17.8
2006-09-08 13:03:26 51°18.931 2°51.223 319.7 1.3 53 17.3
2006-09-08 13:04:27 51°18.942 2°51.249 306.1 0.8 58 17.3
2006-09-08 13:05:25 51°18.96 2°51.242 276 1.9 296 17.7
2006-09-08 13:06:26 51°18.936 2°51.202 197.9 3.4 174 17.7
2006-09-08 13:07:25 51°18.847 2°51.291 157.6 8.2 146 17.3
2006-09-08 13:08:27 51°18.696 2°51.445 156.1 11.3 149 16.8
2006-09-08 13:09:27 51°18.532 2°51.618 155.1 11.9 149 15.6
2006-09-08 13:10:27 51°18.361 2°51.759 163.2 11.7 156 14.6
2006-09-08 13:11:27 51°18.183 2°51.888 165.2 12 157 13.5
2006-09-08 13:12:26 51°18.012 2°52.018 164 11.9 158 13.2
2006-09-08 13:13:26 51°17.838 2°52.147 166.9 12.1 157 13
2006-09-08 13:14:26 51°17.666 2°52.272 166.2 11 156 13.1
2006-09-08 13:15:27 51°17.488 2°52.397 164.4 12.4 159 13.2
2006-09-08 13:16:27 51°17.312 2°52.51 169.1 11.5 160 12.9
2006-09-08 13:17:27 51°17.139 2°52.622 167.7 11.1 155 12.2
2006-09-08 13:18:27 51°16.964 2°52.73 169.2 10.8 161 12.5
2006-09-08 13:19:26 51°16.795 2°52.856 163.6 12.4 154 12
2006-09-08 13:20:27 51°16.617 2°52.973 167.5 11.8 155 14
2006-09-08 13:21:27 51°16.444 2°53.099 164.4 11.7 155 14.3
2006-09-08 13:22:27 51°16.268 2°53.214 168.6 11.5 158 14.5
2006-09-08 13:23:27 51°16.089 2°53.33 165.7 11.8 158 14.4
2006-09-08 13:24:27 51°15.911 2°53.445 166.8 11.3 154 14.1
2006-09-08 13:25:26 51°15.738 2°53.569 164.7 11.7 158 13.5
2006-09-08 13:26:27 51°15.555 2°53.679 167.7 11.5 160 13.1
2006-09-08 13:27:26 51°15.379 2°53.791 164.8 12.3 159 12.5
2006-09-08 13:28:26 51°15.198 2°53.905 163.5 11.6 156 11.9
2006-09-08 13:29:27 51°15.009 2°54.014 168 11.8 163 11.5
2006-09-08 13:30:25 51°14.835 2°54.141 163.4 11.1 152 12.1
2006-09-08 13:31:26 51°14.686 2°54.357 138.9 12.4 126 12.6
2006-09-08 13:32:26 51°14.558 2°54.61 135.9 11.8 131 12.6
2006-09-08 13:33:27 51°14.44 2°54.88 131.7 12.3 122 13.5
2006-09-08 13:34:27 51°14.327 2°55.131 132.4 11.1 127 12.7
2006-09-08 13:35:27 51°14.227 2°55.308 139.4 7.5 138 12.8
2006-09-08 13:36:27 51°14.136 2°55.41 151.4 6.3 152 12.9
2006-09-08 13:37:26 51°14.052 2°55.47 157.5 5.3 156 13
2006-09-08 13:38:27 51°13.961 2°55.532 157.5 6.2 158 13.2
2006-09-08 13:39:27 51°13.866 2°55.602 155.3 6.4 153 12.9
2006-09-08 13:40:27 51°13.773 2°55.682 148.6 5.9 147 12.7
2006-09-08 13:41:27 51°13.711 2°55.779 130.4 5 130 15.7
2006-09-08 13:42:27 51°13.666 2°55.875 124.8 4 124 12
2006-09-08 13:43:27 51°13.632 2°55.956 122 3.4 122 11.9
2006-09-08 13:44:26 51°13.609 2°56.034 105.3 2.9 108 11.9
2006-09-08 13:45:27 51°13.602 2°56.077 103.2 0.8 106 10.7
2006-09-08 13:46:26 51°13.599 2°56.087 108.7 0.6 117 10
2006-09-08 13:47:27 51°13.597 2°56.094 112.4 0.2 129 10